This is the latest recevied weather packets stored in our database for station/object KA6AKH-13. If no packets are shown the sender has not sent any weather packets the latest 10 day(s).
| Time | Temp. | Humidity | Pressure | Rain* | Wind** | Luminosity | Snow |
|---|---|---|---|---|---|---|---|
| 1787969973 | 25° C | 73% | 1018.9 hPa | 0 mm | - | - | - |
| 1787969372 | 25° C | 73% | 1018.8 hPa | 0 mm | - | - | - |
| 1787968772 | 25° C | 72% | 1018.7 hPa | 0 mm | - | - | - |
| 1787968288 | 26.11° C | 69% | 1018.3 hPa | 0 mm | - | - | - |
| 1787968288 | 26.67° C | 67% | 1018.1 hPa | 0 mm | - | - | - |
| 1787968288 | 26.11° C | 68% | 1018.3 hPa | 0 mm | - | - | - |
| 1787968172 | 25.56° C | 71% | 1018.4 hPa | 0 mm | - | - | - |
| 1787967573 | 25.56° C | 70% | 1018.4 hPa | 0 mm | - | - | - |
| 1787966943 | 26.11° C | 69% | 1018.3 hPa | 0 mm | - | - | - |
| 1787966342 | 26.11° C | 68% | 1018.3 hPa | 0 mm | - | - | - |
| 1787965742 | 26.67° C | 67% | 1018.1 hPa | 0 mm | - | - | - |
| 1787965142 | 26.67° C | 66% | 1018.1 hPa | 0 mm | - | - | - |
| 1787964542 | 26.67° C | 64% | 1017.8 hPa | 0 mm | - | - | - |
| 1787963346 | 27.22° C | 62% | 1017.4 hPa | 0 mm | - | - | - |
| 1787962742 | 27.22° C | 62% | 1017.3 hPa | 0 mm | - | - | - |
| 1787962143 | 27.78° C | 61% | 1017.3 hPa | 0 mm | - | - | - |
| 1787961543 | 27.78° C | 61% | 1017 hPa | 0 mm | - | - | - |
| 1787960342 | 28.33° C | 60% | 1016.6 hPa | 0 mm | - | - | - |
| 1787959743 | 28.33° C | 60% | 1016.7 hPa | 0 mm | - | - | - |
| 1787959142 | 28.33° C | 58% | 1016.6 hPa | 0 mm | - | - | - |
| 1787957944 | 28.89° C | 58% | 1016.5 hPa | 0 mm | - | - | - |
| 1787957345 | 28.89° C | 58% | 1016.4 hPa | 0 mm | - | - | - |
| 1787956743 | 28.89° C | 59% | 1016.3 hPa | 0 mm | - | - | - |
| 1787953686 | 30° C | 54% | 1016.2 hPa | 0 mm | - | - | - |
| 1787953082 | 30° C | 53% | 1016.2 hPa | 0 mm | - | - | - |
* Rain latest hour (hover to see other rain measurements)
** Current wind speed in m/s (hover to see current wind gust speed)